createdAt,value
2019-05-22T00:00:34.818Z,98.00
2019-05-22T00:03:02.783Z,97.90
2019-05-22T00:05:50.757Z,98.00
2019-05-22T00:08:18.839Z,97.80
2019-05-22T00:10:48.788Z,97.90
2019-05-22T00:13:18.124Z,97.90
2019-05-22T00:15:47.958Z,97.80
2019-05-22T00:18:17.020Z,97.60
2019-05-22T00:20:44.920Z,97.80
2019-05-22T00:23:12.253Z,97.90
2019-05-22T00:25:59.613Z,97.80
2019-05-22T00:28:27.576Z,97.80
2019-05-22T00:30:56.773Z,97.90
2019-05-22T00:33:24.499Z,98.00
2019-05-22T00:36:12.831Z,97.90
2019-05-22T00:38:41.705Z,97.90
2019-05-22T00:41:11.278Z,97.90
2019-05-22T00:43:41.395Z,97.80
2019-05-22T00:46:11.345Z,97.90
2019-05-22T00:48:40.548Z,98.00
2019-05-22T00:51:47.288Z,98.00
2019-05-22T00:54:22.540Z,97.70
2019-05-22T00:56:55.555Z,97.80
2019-05-22T00:59:32.608Z,97.90
2019-05-22T01:02:19.380Z,97.80
2019-05-22T01:04:48.680Z,97.80
2019-05-22T01:07:21.740Z,98.00
2019-05-22T01:09:51.288Z,97.50
2019-05-22T01:12:21.401Z,97.70
2019-05-22T01:14:49.784Z,97.80
2019-05-22T01:17:19.584Z,97.70
2019-05-22T01:19:48.699Z,97.80
2019-05-22T01:22:17.307Z,97.80
2019-05-22T01:24:45.118Z,97.80
2019-05-22T01:27:13.388Z,97.80
2019-05-22T01:29:41.066Z,97.80
2019-05-22T01:32:20.113Z,97.70
2019-05-22T01:34:48.046Z,97.80
2019-05-22T01:37:17.511Z,97.80
2019-05-22T01:40:01.714Z,97.80
2019-05-22T01:42:34.374Z,97.90
2019-05-22T01:45:06.848Z,97.80
2019-05-22T01:47:44.445Z,97.90
2019-05-22T01:50:17.752Z,97.90
2019-05-22T01:52:47.885Z,97.70
2019-05-22T01:55:17.789Z,97.80
2019-05-22T01:57:46.050Z,97.60
2019-05-22T02:00:13.327Z,97.80
2019-05-22T02:02:42.234Z,97.80
2019-05-22T02:05:10.114Z,97.90
2019-05-22T02:07:57.055Z,97.80
2019-05-22T02:10:30.166Z,97.90
2019-05-22T02:12:58.737Z,97.90
2019-05-22T02:15:26.992Z,97.80
2019-05-22T02:18:15.700Z,97.80
2019-05-22T02:20:44.184Z,97.80
2019-05-22T02:23:11.916Z,98.10
2019-05-22T02:25:39.806Z,97.80
2019-05-22T02:28:08.593Z,97.90
2019-05-22T02:30:38.192Z,97.80
2019-05-22T02:33:06.281Z,97.90
2019-05-22T02:35:33.939Z,97.50
2019-05-22T02:38:01.194Z,97.80
2019-05-22T02:40:31.862Z,97.70
2019-05-22T02:42:59.401Z,97.70
2019-05-22T02:45:26.833Z,97.60
2019-05-22T02:47:56.480Z,97.60
2019-05-22T02:50:23.866Z,97.60
2019-05-22T02:53:11.988Z,97.60
2019-05-22T02:55:39.794Z,97.70
2019-05-22T02:58:08.334Z,97.70
2019-05-22T03:00:49.119Z,97.70
2019-05-22T03:03:36.961Z,97.50
2019-05-22T03:06:17.231Z,97.60
2019-05-22T03:09:13.145Z,97.50
2019-05-22T03:14:45.879Z,97.60
2019-05-22T03:17:24.700Z,97.40
2019-05-22T03:19:52.983Z,97.60
2019-05-22T03:22:30.444Z,97.60
2019-05-22T03:24:59.470Z,97.60
2019-05-22T03:27:42.760Z,97.60
2019-05-22T03:30:21.543Z,97.70
2019-05-22T03:32:50.674Z,97.50
2019-05-22T03:35:17.961Z,97.40
2019-05-22T03:38:05.604Z,97.40
2019-05-22T03:40:34.516Z,97.50
2019-05-22T03:43:24.000Z,97.60
2019-05-22T03:45:53.850Z,97.70
2019-05-22T03:48:34.451Z,97.60
2019-05-22T03:51:09.412Z,97.50
2019-05-22T03:53:36.748Z,97.60
2019-05-22T03:56:04.242Z,97.70
2019-05-22T03:58:32.068Z,97.70
2019-05-22T04:01:01.071Z,97.60
2019-05-22T04:03:48.096Z,97.70
2019-05-22T04:06:15.610Z,97.60
2019-05-22T04:08:43.148Z,97.50
2019-05-22T04:11:32.556Z,97.60
2019-05-22T04:14:00.533Z,97.50
2019-05-22T04:16:30.044Z,97.60
2019-05-22T04:18:58.078Z,97.60
2019-05-22T04:21:25.819Z,97.60
2019-05-22T04:23:53.243Z,97.70
2019-05-22T04:26:21.116Z,97.60
2019-05-22T04:28:52.271Z,97.30
2019-05-22T04:31:32.600Z,97.70
2019-05-22T04:34:00.039Z,97.60
2019-05-22T04:36:28.708Z,97.60
2019-05-22T04:39:00.160Z,97.60
2019-05-22T04:41:27.515Z,97.50
2019-05-22T04:43:55.188Z,97.70
2019-05-22T04:46:22.711Z,97.60
2019-05-22T04:49:10.305Z,97.60
2019-05-22T04:51:45.372Z,97.60
2019-05-22T04:54:12.815Z,97.50
2019-05-22T04:56:40.080Z,97.60
2019-05-22T04:59:08.343Z,97.60
2019-05-22T05:01:36.011Z,97.60
2019-05-22T05:04:03.959Z,97.70
2019-05-22T05:06:33.093Z,97.70
2019-05-22T05:09:00.880Z,97.70
2019-05-22T05:11:28.625Z,97.60
2019-05-22T05:13:55.772Z,97.90
2019-05-22T05:16:23.343Z,97.50
2019-05-22T05:18:50.666Z,97.60
2019-05-22T05:21:18.212Z,97.50
2019-05-22T05:23:46.345Z,97.60
2019-05-22T05:26:13.700Z,97.60
2019-05-22T05:28:41.621Z,97.60
2019-05-22T05:31:11.577Z,97.60
2019-05-22T05:33:52.270Z,97.70
2019-05-22T05:36:31.781Z,97.70
2019-05-22T05:38:59.838Z,97.60
2019-05-22T05:41:30.369Z,97.60
2019-05-22T05:43:57.942Z,97.70
2019-05-22T05:46:25.307Z,97.70
2019-05-22T05:48:54.411Z,97.70
2019-05-22T05:51:25.067Z,97.70
2019-05-22T05:54:01.853Z,97.60
2019-05-22T05:56:31.277Z,97.60
2019-05-22T05:58:59.692Z,97.60
2019-05-22T06:01:33.801Z,97.70
2019-05-22T06:04:03.214Z,97.60
2019-05-22T06:07:13.444Z,97.60
2019-05-22T06:09:40.752Z,97.70
2019-05-22T06:12:08.772Z,97.70
2019-05-22T06:14:37.859Z,97.70
2019-05-22T06:17:43.407Z,97.60
2019-05-22T06:20:11.879Z,97.60
2019-05-22T06:22:40.587Z,97.50
2019-05-22T06:25:09.719Z,97.50
2019-05-22T06:27:49.653Z,97.50
2019-05-22T06:30:37.864Z,97.50
2019-05-22T06:33:43.381Z,97.50
2019-05-22T06:36:14.048Z,97.60
2019-05-22T06:38:55.876Z,97.60
2019-05-22T06:41:26.717Z,97.60
2019-05-22T06:44:39.350Z,97.60
2019-05-22T06:47:08.858Z,97.70
2019-05-22T06:49:51.514Z,97.60
2019-05-22T06:52:19.142Z,97.70
2019-05-22T06:54:46.875Z,97.60
2019-05-22T06:57:43.711Z,97.70
2019-05-22T07:00:17.382Z,97.50
2019-05-22T07:02:44.967Z,97.60
2019-05-22T07:05:12.427Z,97.70
2019-05-22T07:07:39.971Z,97.60
2019-05-22T07:10:07.899Z,97.70
2019-05-22T07:12:35.700Z,97.60
2019-05-22T07:15:28.471Z,97.60
2019-05-22T07:17:57.211Z,97.60
2019-05-22T07:20:30.293Z,97.60
2019-05-22T07:22:59.730Z,97.40
2019-05-22T07:25:28.022Z,97.40
2019-05-22T07:27:55.298Z,97.40
2019-05-22T07:30:23.519Z,97.40
2019-05-22T07:32:50.972Z,97.70
2019-05-22T07:35:18.292Z,97.40
2019-05-22T07:37:49.479Z,97.50
2019-05-22T07:40:16.797Z,97.40
2019-05-22T07:42:44.424Z,97.70
2019-05-22T07:45:12.179Z,97.50
2019-05-22T07:47:40.258Z,97.40
2019-05-22T07:50:07.328Z,97.50
2019-05-22T07:52:34.581Z,97.40
2019-05-22T07:55:02.191Z,97.20
2019-05-22T07:57:30.061Z,97.30
2019-05-22T08:00:16.905Z,97.50
2019-05-22T08:02:46.836Z,97.40
2019-05-22T08:05:14.392Z,97.40
2019-05-22T08:07:41.938Z,97.40
2019-05-22T08:10:10.039Z,97.50
2019-05-22T08:12:37.678Z,97.30
2019-05-22T08:15:06.108Z,97.30
2019-05-22T08:17:33.623Z,97.00
2019-05-22T08:20:00.982Z,97.70
2019-05-22T08:22:28.528Z,97.10
2019-05-22T08:24:55.573Z,97.50
2019-05-22T08:27:23.133Z,97.00
2019-05-22T08:29:56.581Z,97.00
2019-05-22T08:32:21.881Z,97.10
2019-05-22T08:34:49.068Z,97.10
2019-05-22T08:37:17.604Z,96.90
2019-05-22T08:39:45.101Z,97.20
2019-05-22T08:42:14.721Z,97.10
2019-05-22T08:44:42.413Z,97.20
2019-05-22T08:47:11.141Z,96.90
2019-05-22T08:49:42.056Z,96.60
2019-05-22T08:52:22.498Z,96.90
2019-05-22T08:54:38.827Z,96.90
2019-05-22T08:57:08.136Z,96.80
2019-05-22T08:59:55.446Z,96.80
2019-05-22T09:02:22.865Z,96.70
2019-05-22T09:04:50.248Z,96.60
2019-05-22T09:07:18.839Z,96.50
2019-05-22T09:09:46.232Z,96.80
2019-05-22T09:12:15.796Z,96.70
2019-05-22T09:14:43.544Z,96.50
2019-05-22T09:17:11.095Z,96.60
2019-05-22T09:19:38.565Z,96.50
2019-05-22T09:22:07.862Z,96.10
2019-05-22T09:24:36.138Z,96.50
2019-05-22T09:27:04.737Z,96.60
2019-05-22T09:29:31.836Z,96.70
2019-05-22T09:31:59.399Z,96.50
2019-05-22T09:34:26.959Z,96.60
2019-05-22T09:36:54.053Z,96.30
2019-05-22T09:39:21.671Z,95.90
2019-05-22T09:41:49.437Z,96.10
2019-05-22T09:44:16.849Z,96.50
2019-05-22T09:46:44.542Z,96.60
2019-05-22T09:49:12.321Z,96.40
2019-05-22T09:51:40.179Z,96.10
2019-05-22T09:54:08.287Z,96.10
2019-05-22T09:56:55.518Z,95.90
2019-05-22T09:59:22.949Z,95.80
2019-05-22T10:01:50.496Z,95.00
2019-05-22T10:04:18.490Z,95.10
2019-05-22T10:06:45.816Z,94.80
2019-05-22T10:09:13.537Z,95.50
2019-05-22T10:11:40.914Z,95.50
2019-05-22T10:14:08.416Z,94.80
2019-05-22T10:16:36.952Z,95.90
2019-05-22T10:19:04.577Z,94.80
2019-05-22T10:21:52.583Z,95.10
2019-05-22T10:24:20.655Z,95.10
2019-05-22T10:26:48.018Z,95.50
2019-05-22T10:29:14.960Z,95.10
2019-05-22T10:31:42.634Z,94.50
2019-05-22T10:34:09.909Z,94.90
2019-05-22T10:36:37.182Z,94.10
2019-05-22T10:39:05.621Z,93.90
2019-05-22T10:41:33.270Z,93.20
2019-05-22T10:44:01.035Z,92.30
2019-05-22T10:46:28.887Z,94.10
2019-05-22T10:48:56.306Z,94.50
2019-05-22T10:51:39.689Z,94.50
2019-05-22T10:54:07.080Z,93.70
2019-05-22T10:56:53.711Z,94.10
2019-05-22T10:59:20.801Z,93.40
2019-05-22T11:01:48.562Z,92.80
2019-05-22T11:04:19.247Z,92.70
2019-05-22T11:06:45.870Z,93.40
2019-05-22T11:09:33.363Z,92.40
2019-05-22T11:12:00.600Z,92.80
2019-05-22T11:14:28.381Z,91.10
2019-05-22T11:16:56.697Z,92.60
2019-05-22T11:19:43.752Z,91.50
2019-05-22T11:22:10.931Z,91.30
2019-05-22T11:24:57.743Z,89.80
2019-05-22T11:27:25.914Z,91.60
2019-05-22T11:29:53.350Z,90.70
2019-05-22T11:32:20.893Z,91.90
2019-05-22T11:35:08.146Z,91.70
2019-05-22T11:37:49.133Z,90.50
2019-05-22T11:40:17.374Z,91.20
2019-05-22T11:42:45.721Z,91.40
2019-05-22T11:45:13.570Z,87.90
2019-05-22T11:47:40.598Z,92.00
2019-05-22T11:50:08.539Z,91.30
2019-05-22T11:52:36.257Z,91.80
2019-05-22T11:55:05.494Z,91.90
2019-05-22T11:57:33.359Z,91.90
2019-05-22T12:00:01.259Z,91.60
2019-05-22T12:02:49.942Z,92.00
2019-05-22T12:05:17.483Z,91.20
2019-05-22T12:07:45.635Z,91.80
2019-05-22T12:10:13.721Z,91.50
2019-05-22T12:12:41.440Z,91.10
2019-05-22T12:15:09.894Z,92.10
2019-05-22T12:17:56.632Z,91.70
2019-05-22T12:20:24.569Z,91.70
2019-05-22T12:22:52.249Z,91.70
2019-05-22T12:25:39.421Z,91.20
2019-05-22T12:28:06.517Z,91.10
2019-05-22T12:30:54.072Z,91.50
2019-05-22T12:33:21.396Z,91.70
2019-05-22T12:36:09.129Z,91.70
2019-05-22T12:38:37.168Z,91.90
2019-05-22T12:41:04.525Z,91.90
2019-05-22T12:43:33.272Z,91.70
2019-05-22T12:46:00.749Z,91.60
2019-05-22T12:48:31.003Z,91.90
2019-05-22T12:50:58.409Z,90.90
2019-05-22T12:53:25.736Z,91.60
2019-05-22T12:55:53.549Z,91.30
2019-05-22T12:58:21.620Z,90.50
2019-05-22T13:00:50.343Z,91.60
2019-05-22T13:03:18.233Z,90.90
2019-05-22T13:06:05.960Z,90.10
2019-05-22T13:08:34.595Z,90.20
2019-05-22T13:11:05.288Z,90.80
2019-05-22T13:13:32.114Z,88.70
2019-05-22T13:16:00.839Z,90.00
2019-05-22T13:18:28.797Z,90.60
2019-05-22T13:20:57.173Z,90.20
2019-05-22T13:23:45.117Z,89.20
2019-05-22T13:26:33.232Z,90.30
2019-05-22T13:29:01.079Z,87.70
2019-05-22T13:31:29.145Z,88.20
2019-05-22T13:34:16.476Z,87.80
2019-05-22T13:36:44.244Z,87.30
2019-05-22T13:39:12.534Z,88.00
2019-05-22T13:41:40.096Z,87.10
2019-05-22T13:44:31.047Z,86.20
2019-05-22T13:46:58.739Z,85.60
2019-05-22T13:49:27.754Z,85.50
2019-05-22T13:51:55.317Z,86.10
2019-05-22T13:54:43.382Z,84.20
2019-05-22T13:57:10.754Z,83.80
2019-05-22T13:59:38.612Z,80.80
2019-05-22T14:02:06.003Z,85.40
2019-05-22T14:04:33.294Z,84.80
2019-05-22T14:07:00.757Z,82.50
2019-05-22T14:09:29.384Z,81.90
2019-05-22T14:11:57.353Z,82.20
2019-05-22T14:14:24.501Z,81.30
2019-05-22T14:16:51.500Z,81.40
2019-05-22T14:19:38.307Z,83.90
2019-05-22T14:22:25.199Z,82.80
2019-05-22T14:24:52.653Z,77.60
2019-05-22T14:27:19.848Z,82.40
2019-05-22T14:29:47.238Z,84.20
2019-05-22T14:32:15.657Z,81.30
2019-05-22T14:34:43.409Z,79.40
2019-05-22T14:37:11.415Z,81.60
2019-05-22T14:39:38.315Z,82.30
2019-05-22T14:42:05.800Z,74.60
2019-05-22T14:44:34.011Z,78.50
2019-05-22T14:47:21.481Z,78.70
2019-05-22T14:49:49.426Z,71.50
2019-05-22T14:52:36.796Z,79.30
2019-05-22T14:55:04.811Z,78.20
2019-05-22T14:57:51.879Z,78.90
2019-05-22T15:00:21.414Z,77.20
2019-05-22T15:02:55.599Z,79.20
2019-05-22T15:05:18.678Z,77.10
2019-05-22T15:07:46.357Z,77.50
2019-05-22T15:10:21.390Z,81.60
2019-05-22T15:12:48.904Z,77.80
2019-05-22T15:15:17.784Z,82.50
2019-05-22T15:18:05.098Z,78.90
2019-05-22T15:20:36.720Z,80.40
2019-05-22T15:23:04.383Z,81.40
2019-05-22T15:25:31.819Z,79.20
2019-05-22T15:27:59.465Z,81.00
2019-05-22T15:30:26.935Z,80.10
2019-05-22T15:33:03.479Z,83.40
2019-05-22T15:35:30.877Z,81.60
2019-05-22T15:37:58.947Z,82.20
2019-05-22T15:40:27.396Z,82.90
2019-05-22T15:43:14.867Z,83.70
2019-05-22T15:46:01.889Z,81.40
2019-05-22T15:48:40.483Z,81.50
2019-05-22T15:51:08.588Z,83.90
2019-05-22T15:53:36.605Z,82.70
2019-05-22T15:56:03.855Z,82.40
2019-05-22T15:58:32.247Z,82.70
2019-05-22T16:01:41.735Z,83.70
2019-05-22T16:04:09.437Z,81.80
2019-05-22T16:06:37.708Z,82.70
2019-05-22T16:09:12.575Z,78.40
2019-05-22T16:11:41.067Z,82.20
2019-05-22T16:14:09.160Z,81.30
2019-05-22T16:16:37.169Z,82.30
2019-05-22T16:19:04.857Z,82.20
2019-05-22T16:22:26.709Z,83.70
2019-05-22T16:24:54.793Z,84.20
2019-05-22T16:27:22.320Z,83.80
2019-05-22T16:29:49.674Z,84.50
2019-05-22T16:32:17.081Z,84.00
2019-05-22T16:34:44.640Z,83.50
2019-05-22T16:37:12.298Z,83.90
2019-05-22T16:39:39.325Z,83.70
2019-05-22T16:42:07.429Z,83.30
2019-05-22T16:44:34.874Z,83.10
2019-05-22T16:47:01.791Z,84.80
2019-05-22T16:49:29.433Z,85.10
2019-05-22T16:51:57.829Z,83.40
2019-05-22T16:54:25.224Z,84.40
2019-05-22T16:56:52.158Z,85.60
2019-05-22T16:59:19.692Z,85.40
2019-05-22T17:01:58.466Z,83.80
2019-05-22T17:04:16.653Z,85.00
2019-05-22T17:06:44.671Z,83.50
2019-05-22T17:09:13.829Z,84.20
2019-05-22T17:11:41.359Z,83.80
2019-05-22T17:14:10.287Z,84.30
2019-05-22T17:16:39.137Z,84.00
2019-05-22T17:19:27.942Z,85.70
2019-05-22T17:21:56.159Z,84.20
2019-05-22T17:24:23.156Z,83.90
2019-05-22T17:26:51.933Z,83.70
2019-05-22T17:29:19.557Z,82.30
2019-05-22T17:32:07.588Z,82.30
2019-05-22T17:34:40.125Z,81.50
2019-05-22T17:37:10.887Z,83.80
2019-05-22T17:40:02.575Z,83.90
2019-05-22T17:42:44.595Z,84.60
2019-05-22T17:45:11.176Z,84.80
2019-05-22T17:47:58.103Z,85.20
2019-05-22T17:50:27.703Z,84.60
2019-05-22T17:52:56.261Z,83.60
2019-05-22T17:55:24.559Z,82.80
2019-05-22T17:57:52.457Z,82.90
2019-05-22T18:00:28.753Z,82.50
2019-05-22T18:02:56.409Z,83.10
2019-05-22T18:05:23.850Z,82.90
2019-05-22T18:07:51.037Z,83.40
2019-05-22T18:10:18.402Z,82.50
2019-05-22T18:12:45.333Z,82.90
2019-05-22T18:15:13.997Z,83.10
2019-05-22T18:17:41.095Z,82.30
2019-05-22T18:20:10.822Z,82.70
2019-05-22T18:22:38.301Z,83.40
2019-05-22T18:25:08.708Z,82.70
2019-05-22T18:27:35.894Z,83.40
2019-05-22T18:30:03.394Z,83.80
2019-05-22T18:32:50.972Z,84.30
2019-05-22T18:35:18.109Z,83.70
2019-05-22T18:37:45.589Z,84.20
2019-05-22T18:40:13.712Z,84.20
2019-05-22T18:43:01.101Z,83.80
2019-05-22T18:45:29.476Z,82.80
2019-05-22T18:48:19.364Z,82.70
2019-05-22T18:50:50.312Z,82.80
2019-05-22T18:53:37.791Z,83.10
2019-05-22T18:56:24.731Z,83.50
2019-05-22T18:59:05.284Z,84.20
2019-05-22T19:01:33.094Z,84.40
2019-05-22T19:04:21.657Z,84.20
2019-05-22T19:06:49.020Z,84.40
2019-05-22T19:09:16.035Z,84.80
2019-05-22T19:11:43.604Z,85.20
2019-05-22T19:14:11.127Z,84.60
2019-05-22T19:16:38.527Z,85.10
2019-05-22T19:19:05.611Z,85.10
2019-05-22T19:21:33.425Z,85.20
2019-05-22T19:24:00.373Z,85.30
2019-05-22T19:26:27.621Z,85.20
2019-05-22T19:28:55.195Z,85.50
2019-05-22T19:31:22.909Z,85.50
2019-05-22T19:33:50.048Z,85.20
2019-05-22T19:36:17.457Z,85.50
2019-05-22T19:38:45.173Z,85.30
2019-05-22T19:41:12.519Z,85.70
2019-05-22T19:43:40.285Z,85.70
2019-05-22T19:46:08.024Z,85.40
2019-05-22T19:48:35.174Z,85.10
2019-05-22T19:51:02.530Z,85.30
2019-05-22T19:53:30.358Z,85.20
2019-05-22T19:55:57.303Z,85.50
2019-05-22T19:58:24.751Z,85.60
2019-05-22T20:01:11.952Z,85.50
2019-05-22T20:03:39.225Z,84.60
2019-05-22T20:06:06.771Z,85.10
2019-05-22T20:08:36.460Z,85.50
2019-05-22T20:11:03.973Z,85.50
2019-05-22T20:13:31.390Z,84.80
2019-05-22T20:16:18.333Z,85.10
2019-05-22T20:18:45.764Z,84.70
2019-05-22T20:21:12.792Z,85.00
2019-05-22T20:23:40.435Z,85.20
2019-05-22T20:26:08.395Z,85.00
2019-05-22T20:28:35.934Z,85.20
2019-05-22T20:31:03.384Z,85.30
2019-05-22T20:33:31.216Z,85.20
2019-05-22T20:35:58.209Z,84.90
2019-05-22T20:38:25.557Z,85.10
2019-05-22T20:40:52.553Z,85.00
2019-05-22T20:43:20.371Z,85.70
2019-05-22T20:45:47.389Z,85.40
2019-05-22T20:48:21.568Z,85.70
2019-05-22T20:50:49.463Z,86.00
2019-05-22T20:53:18.777Z,85.80
2019-05-22T20:55:48.205Z,85.80
2019-05-22T20:58:19.234Z,86.50
2019-05-22T21:00:48.513Z,86.20
2019-05-22T21:03:16.724Z,86.80
2019-05-22T21:05:43.747Z,87.00
2019-05-22T21:08:11.479Z,86.20
2019-05-22T21:13:38.203Z,86.00
2019-05-22T21:16:06.934Z,85.90
2019-05-22T21:18:39.762Z,86.10
2019-05-22T21:21:08.484Z,85.80
2019-05-22T21:23:36.249Z,86.40
2019-05-22T21:26:22.762Z,86.70
2019-05-22T21:28:50.299Z,86.50
2019-05-22T21:31:17.616Z,86.50
2019-05-22T21:33:45.454Z,86.50
2019-05-22T21:36:13.292Z,86.90
2019-05-22T21:38:40.320Z,87.00
2019-05-22T21:41:09.718Z,87.00
2019-05-22T21:43:36.626Z,87.20
2019-05-22T21:46:03.715Z,87.30
2019-05-22T21:48:32.019Z,87.90
2019-05-22T21:51:20.094Z,88.40
2019-05-22T21:53:47.651Z,88.20
2019-05-22T21:56:14.867Z,88.40
2019-05-22T21:58:42.764Z,88.50
2019-05-22T22:01:18.318Z,88.70
2019-05-22T22:03:47.520Z,88.30
2019-05-22T22:07:05.286Z,88.60
2019-05-22T22:09:32.567Z,87.70
2019-05-22T22:12:00.801Z,88.50
2019-05-22T22:14:28.493Z,88.90
2019-05-22T22:16:55.830Z,88.70
2019-05-22T22:19:24.874Z,88.30
2019-05-22T22:22:13.602Z,88.00
2019-05-22T22:24:40.640Z,88.20
2019-05-22T22:27:09.816Z,88.20
2019-05-22T22:29:36.957Z,88.70
2019-05-22T22:32:10.303Z,88.70
2019-05-22T22:34:43.968Z,88.60
2019-05-22T22:37:12.474Z,88.50
2019-05-22T22:40:01.844Z,88.80
2019-05-22T22:42:42.359Z,88.70
2019-05-22T22:45:17.201Z,89.20
2019-05-22T22:47:45.202Z,89.30
2019-05-22T22:50:12.822Z,89.10
2019-05-22T22:53:00.219Z,89.20
2019-05-22T22:55:29.105Z,89.30
2019-05-22T22:57:56.495Z,89.50
2019-05-22T23:00:29.024Z,89.80
2019-05-22T23:02:56.854Z,90.00
2019-05-22T23:05:23.864Z,90.00
2019-05-22T23:08:10.719Z,90.00
2019-05-22T23:10:40.258Z,90.00
2019-05-22T23:13:08.979Z,90.00
2019-05-22T23:15:55.952Z,90.00
2019-05-22T23:19:06.597Z,89.40
2019-05-22T23:21:35.218Z,89.80
2019-05-22T23:24:01.475Z,89.70
2019-05-22T23:26:29.583Z,89.80
2019-05-22T23:28:56.560Z,89.80
2019-05-22T23:31:23.598Z,89.80
2019-05-22T23:33:51.430Z,89.80
2019-05-22T23:36:19.963Z,89.60
2019-05-22T23:38:47.584Z,89.70
2019-05-22T23:41:14.722Z,89.80
2019-05-22T23:43:42.194Z,89.80
2019-05-22T23:46:10.903Z,89.60
2019-05-22T23:48:38.319Z,89.80
2019-05-22T23:51:05.424Z,89.50
2019-05-22T23:53:34.620Z,89.60
2019-05-22T23:56:03.668Z,89.60
2019-05-22T23:58:30.956Z,89.60
